createdAt,value
2022-10-31T00:00:54.351Z,100411.41
2022-10-31T00:05:55.755Z,100411.19
2022-10-31T00:10:57.116Z,100420.19
2022-10-31T00:15:58.507Z,100417.28
2022-10-31T00:21:03.107Z,100422.31
2022-10-31T00:26:04.858Z,100426.50
2022-10-31T00:31:07.692Z,100421.28
2022-10-31T00:36:17.279Z,100423.78
2022-10-31T00:41:18.736Z,100427.56
2022-10-31T00:46:20.098Z,100416.69
2022-10-31T00:51:21.456Z,100424.84
2022-10-31T00:56:22.814Z,100427.41
2022-10-31T01:01:24.310Z,100430.47
2022-10-31T01:06:25.739Z,100435.06
2022-10-31T01:11:27.143Z,100435.34
2022-10-31T01:16:30.256Z,100431.78
2022-10-31T01:21:31.649Z,100437.03
2022-10-31T01:26:33.323Z,100435.50
2022-10-31T01:31:36.131Z,100437.63
2022-10-31T01:36:38.376Z,100429.88
2022-10-31T01:41:41.875Z,100430.50
2022-10-31T01:47:00.690Z,100432.78
2022-10-31T01:52:05.975Z,100435.94
2022-10-31T01:57:07.899Z,100427.56
2022-10-31T02:02:09.422Z,100429.88
2022-10-31T02:07:32.227Z,100436.97
2022-10-31T02:12:33.927Z,100440.75
2022-10-31T02:17:35.296Z,100441.47
2022-10-31T02:23:11.397Z,100448.38
2022-10-31T02:28:37.383Z,100450.84
2022-10-31T02:33:58.738Z,100442.50
2022-10-31T02:39:14.011Z,100455.69
2022-10-31T02:44:27.556Z,100452.50
2022-10-31T02:49:34.714Z,100445.78
2022-10-31T02:54:36.070Z,100454.38
2022-10-31T02:59:45.851Z,100466.47
2022-10-31T03:04:58.722Z,100470.69
2022-10-31T03:10:21.123Z,100459.16
2022-10-31T03:15:24.952Z,100466.88
2022-10-31T03:20:30.732Z,100473.81
2022-10-31T03:25:32.094Z,100459.56
2022-10-31T03:30:34.319Z,100458.06
2022-10-31T03:35:35.696Z,100468.75
2022-10-31T03:40:37.470Z,100476.94
2022-10-31T03:45:41.850Z,100475.66
2022-10-31T03:51:22.886Z,100473.78
2022-10-31T03:56:38.608Z,100475.44
2022-10-31T04:01:42.240Z,100485.50
2022-10-31T04:06:43.820Z,100484.22
2022-10-31T04:11:48.008Z,100485.47
2022-10-31T04:16:49.370Z,100490.06
2022-10-31T04:21:50.728Z,100489.06
2022-10-31T04:26:52.104Z,100491.38
2022-10-31T04:31:53.457Z,100495.31
2022-10-31T04:36:54.818Z,100487.13
2022-10-31T04:41:56.187Z,100493.84
2022-10-31T04:46:57.543Z,100495.13
2022-10-31T04:51:58.926Z,100499.31
2022-10-31T04:57:00.292Z,100506.25
2022-10-31T05:02:01.776Z,100499.31
2022-10-31T05:07:03.212Z,100501.41
2022-10-31T05:12:04.635Z,100498.22
2022-10-31T05:17:05.994Z,100504.97
2022-10-31T05:22:07.358Z,100503.31
2022-10-31T05:27:08.730Z,100504.56
2022-10-31T05:32:10.090Z,100499.94
2022-10-31T05:37:11.447Z,100504.28
2022-10-31T05:42:12.815Z,100504.75
2022-10-31T05:47:14.171Z,100504.31
2022-10-31T05:52:15.553Z,100510.16
2022-10-31T05:57:16.932Z,100525.03
2022-10-31T06:02:18.295Z,100530.25
2022-10-31T06:07:19.707Z,100531.28
2022-10-31T06:12:21.064Z,100521.16
2022-10-31T06:17:22.424Z,100535.34
2022-10-31T06:22:23.792Z,100526.81
2022-10-31T06:27:25.188Z,100529.09
2022-10-31T06:32:26.579Z,100541.88
2022-10-31T06:37:27.944Z,100556.53
2022-10-31T06:42:29.323Z,100555.03
2022-10-31T06:47:30.693Z,100566.97
2022-10-31T06:52:32.056Z,100569.53
2022-10-31T06:57:33.419Z,100575.19
2022-10-31T07:02:34.838Z,100577.31
2022-10-31T07:07:36.252Z,100578.53
2022-10-31T07:12:37.626Z,100576.44
2022-10-31T07:17:39.007Z,100587.78
2022-10-31T07:22:40.411Z,100589.19
2022-10-31T07:27:43.015Z,100594.25
2022-10-31T07:32:48.539Z,100595.50
2022-10-31T07:37:49.949Z,100590.25
2022-10-31T07:42:52.343Z,100587.06
2022-10-31T07:47:53.727Z,100600.13
2022-10-31T07:53:05.378Z,100601.41
2022-10-31T07:58:08.295Z,100599.03
2022-10-31T08:03:14.369Z,100603.63
2022-10-31T08:08:15.804Z,100604.88
2022-10-31T08:13:17.187Z,100602.19
2022-10-31T08:18:18.562Z,100594.66
2022-10-31T08:23:19.960Z,100595.28
2022-10-31T08:28:21.332Z,100601.97
2022-10-31T08:33:22.692Z,100596.09
2022-10-31T08:38:24.051Z,100595.50
2022-10-31T08:43:25.455Z,100595.66
2022-10-31T08:48:26.819Z,100599.22
2022-10-31T08:53:28.214Z,100601.75
2022-10-31T08:58:29.583Z,100592.25
2022-10-31T09:03:31.699Z,100598.56
2022-10-31T09:08:33.394Z,100589.38
2022-10-31T09:13:40.249Z,100591.06
2022-10-31T09:18:42.632Z,100597.09
2022-10-31T09:23:44.016Z,100605.53
2022-10-31T09:28:45.777Z,100609.91
2022-10-31T09:33:47.163Z,100603.44
2022-10-31T09:38:48.537Z,100606.16
2022-10-31T09:44:14.775Z,100600.88
2022-10-31T09:49:52.121Z,100594.81
2022-10-31T09:54:55.660Z,100589.13
2022-10-31T09:59:57.029Z,100592.78
2022-10-31T10:05:12.306Z,100597.38
2022-10-31T10:10:24.280Z,100591.66
2022-10-31T10:15:56.444Z,100593.13
2022-10-31T10:21:11.472Z,100595.03
2022-10-31T10:26:18.176Z,100581.63
2022-10-31T10:31:25.339Z,100574.91
2022-10-31T10:36:35.450Z,100573.00
2022-10-31T10:41:36.815Z,100569.88
2022-10-31T10:47:07.171Z,100562.72
2022-10-31T10:52:51.331Z,100552.88
2022-10-31T10:57:54.892Z,100556.53
2022-10-31T11:02:56.276Z,100547.88
2022-10-31T11:07:57.639Z,100553.25
2022-10-31T11:13:05.074Z,100545.75
2022-10-31T11:18:06.451Z,100536.34
2022-10-31T11:23:27.645Z,100533.56
2022-10-31T11:28:30.328Z,100525.38
2022-10-31T11:33:35.804Z,100514.09
2022-10-31T11:38:41.678Z,100509.91
2022-10-31T11:43:52.891Z,100505.31
2022-10-31T11:48:54.982Z,100508.19
2022-10-31T11:54:01.856Z,100501.09
2022-10-31T11:59:06.482Z,100496.28
2022-10-31T12:04:11.406Z,100487.28
2022-10-31T12:09:22.357Z,100479.31
2022-10-31T12:14:35.859Z,100478.84
2022-10-31T12:19:42.932Z,100469.88
2022-10-31T12:24:55.877Z,100473.44
2022-10-31T12:30:10.691Z,100453.72
2022-10-31T12:35:33.539Z,100461.66
2022-10-31T12:40:49.464Z,100452.41
2022-10-31T12:45:55.602Z,100449.31
2022-10-31T12:51:29.655Z,100444.06
2022-10-31T12:56:43.632Z,100432.03
2022-10-31T13:01:54.880Z,100428.94
2022-10-31T13:06:59.168Z,100419.22
2022-10-31T13:12:04.480Z,100423.19
2022-10-31T13:17:05.927Z,100417.78
2022-10-31T13:22:24.556Z,100407.50
2022-10-31T13:27:36.846Z,100401.44
2022-10-31T13:33:08.554Z,100397.50
2022-10-31T13:38:14.851Z,100400.25
2022-10-31T13:43:24.527Z,100392.59
2022-10-31T13:48:25.716Z,100391.09
2022-10-31T13:53:37.895Z,100386.72
2022-10-31T13:58:39.267Z,100388.41
2022-10-31T14:09:02.761Z,100376.06
2022-10-31T14:14:04.139Z,100372.28
2022-10-31T14:19:07.901Z,100361.16
2022-10-31T14:24:17.759Z,100354.66
2022-10-31T14:29:18.980Z,100350.63
2022-10-31T14:34:36.488Z,100353.16
2022-10-31T14:40:02.738Z,100347.53
2022-10-31T14:45:33.480Z,100341.63
2022-10-31T14:50:53.966Z,100340.19
2022-10-31T14:55:56.115Z,100346.72
2022-10-31T15:00:57.698Z,100341.06
2022-10-31T15:06:13.407Z,100332.09
2022-10-31T15:11:17.723Z,100334.06
2022-10-31T15:16:21.919Z,100317.03
2022-10-31T15:21:24.490Z,100320.97
2022-10-31T15:26:41.335Z,100320.19
2022-10-31T15:31:56.163Z,100309.88
2022-10-31T15:36:57.522Z,100307.66
2022-10-31T15:41:59.356Z,100308.63
2022-10-31T15:47:20.041Z,100303.78
2022-10-31T15:52:32.061Z,100296.25
2022-10-31T15:57:33.621Z,100289.22
2022-10-31T16:02:35.102Z,100282.47
2022-10-31T16:07:36.519Z,100279.84
2022-10-31T16:12:38.644Z,100282.69
2022-10-31T16:17:41.851Z,100278.19
2022-10-31T16:22:43.238Z,100278.63
2022-10-31T16:27:55.238Z,100278.91
2022-10-31T16:33:00.661Z,100286.97
2022-10-31T16:38:02.479Z,100279.16
2022-10-31T16:43:04.308Z,100279.16
2022-10-31T16:48:09.751Z,100284.38
2022-10-31T16:53:15.033Z,100278.53
2022-10-31T16:58:24.764Z,100275.81
2022-10-31T17:03:26.223Z,100276.44
2022-10-31T17:08:27.599Z,100279.97
2022-10-31T17:13:30.532Z,100280.75
2022-10-31T17:18:32.386Z,100274.38
2022-10-31T17:23:33.747Z,100269.69
2022-10-31T17:28:35.111Z,100268.91
2022-10-31T17:33:36.476Z,100268.78
2022-10-31T17:38:38.304Z,100260.75
2022-10-31T17:43:39.810Z,100258.03
2022-10-31T17:48:41.652Z,100259.91
2022-10-31T17:53:43.018Z,100248.88
2022-10-31T17:58:44.657Z,100252.94
2022-10-31T18:03:46.069Z,100252.28
2022-10-31T18:08:47.555Z,100240.84
2022-10-31T18:13:56.378Z,100248.47
2022-10-31T18:19:01.908Z,100243.25
2022-10-31T18:24:03.399Z,100248.34
2022-10-31T18:29:04.772Z,100240.03
2022-10-31T18:34:06.131Z,100235.84
2022-10-31T18:39:07.490Z,100226.84
2022-10-31T18:44:08.866Z,100227.28
2022-10-31T18:49:10.585Z,100224.78
2022-10-31T18:54:12.151Z,100222.88
2022-10-31T18:59:13.541Z,100222.16
2022-10-31T19:04:14.923Z,100217.91
2022-10-31T19:09:16.283Z,100206.47
2022-10-31T19:14:17.643Z,100211.72
2022-10-31T19:19:20.425Z,100206.84
2022-10-31T19:24:21.907Z,100218.19
2022-10-31T19:29:23.290Z,100203.16
2022-10-31T19:34:24.654Z,100195.81
2022-10-31T19:39:27.056Z,100194.66
2022-10-31T19:44:30.700Z,100187.38
2022-10-31T19:49:32.103Z,100185.13
2022-10-31T19:54:33.458Z,100182.78
2022-10-31T19:59:39.156Z,100171.28
2022-10-31T20:04:40.932Z,100159.41
2022-10-31T20:09:45.024Z,100164.16
2022-10-31T20:14:46.392Z,100167.44
2022-10-31T20:19:47.750Z,100175.13
2022-10-31T20:24:49.179Z,100163.19
2022-10-31T20:29:50.539Z,100150.47
2022-10-31T20:34:51.921Z,100147.53
2022-10-31T20:39:55.721Z,100148.59
2022-10-31T20:44:58.057Z,100135.78
2022-10-31T20:49:59.419Z,100134.38
2022-10-31T20:55:00.783Z,100120.78
2022-10-31T21:00:02.376Z,100118.41
2022-10-31T21:05:08.159Z,100122.38
2022-10-31T21:10:14.634Z,100111.50
2022-10-31T21:15:16.099Z,100108.56
2022-10-31T21:20:17.452Z,100108.16
2022-10-31T21:25:18.813Z,100100.47
2022-10-31T21:30:20.223Z,100106.66
2022-10-31T21:35:21.739Z,100104.16
2022-10-31T21:40:23.106Z,100103.31
2022-10-31T21:45:24.555Z,100095.97
2022-10-31T21:50:26.030Z,100095.59
2022-10-31T21:55:27.387Z,100092.81
2022-10-31T22:00:28.750Z,100080.09
2022-10-31T22:05:30.120Z,100068.38
2022-10-31T22:10:31.479Z,100061.91
2022-10-31T22:15:32.843Z,100051.84
2022-10-31T22:20:34.210Z,100055.41
2022-10-31T22:25:37.171Z,100050.84
2022-10-31T22:30:38.632Z,100062.91
2022-10-31T22:35:39.991Z,100048.69
2022-10-31T22:40:41.357Z,100035.31
2022-10-31T22:45:42.788Z,100037.63
2022-10-31T22:50:44.162Z,100032.50
2022-10-31T22:55:45.566Z,100027.78
2022-10-31T23:00:46.948Z,100029.09
2022-10-31T23:05:57.074Z,100011.25
2022-10-31T23:10:58.431Z,100013.53
2022-10-31T23:15:59.826Z,100004.38
2022-10-31T23:21:01.569Z,100007.00
2022-10-31T23:26:21.491Z,99992.09
2022-10-31T23:31:22.850Z,99981.94
2022-10-31T23:36:24.226Z,99976.81
2022-10-31T23:41:25.583Z,99961.97
2022-10-31T23:46:27.039Z,99963.81
2022-10-31T23:51:28.567Z,99951.78
2022-10-31T23:56:29.927Z,99954.25
